sensor_id;sensor_type;location;lat;lon;timestamp;P1;durP1;ratioP1;P2;durP2;ratioP2
59938;SDS011;45801;51.810;19.444;2023-04-03T00:01:53;9.20;;;4.10;;
59938;SDS011;45801;51.810;19.444;2023-04-03T00:04:19;8.60;;;4.50;;
59938;SDS011;45801;51.810;19.444;2023-04-03T00:06:46;7.90;;;3.00;;
59938;SDS011;45801;51.810;19.444;2023-04-03T00:09:12;8.50;;;4.00;;
59938;SDS011;45801;51.810;19.444;2023-04-03T00:11:39;6.60;;;2.50;;
59938;SDS011;45801;51.810;19.444;2023-04-03T00:14:05;8.10;;;2.70;;
59938;SDS011;45801;51.810;19.444;2023-04-03T00:16:32;6.90;;;2.40;;
59938;SDS011;45801;51.810;19.444;2023-04-03T00:18:58;7.00;;;2.80;;
59938;SDS011;45801;51.810;19.444;2023-04-03T00:21:25;7.80;;;2.70;;
59938;SDS011;45801;51.810;19.444;2023-04-03T00:23:53;6.80;;;2.20;;
59938;SDS011;45801;51.810;19.444;2023-04-03T00:26:19;6.30;;;2.10;;
59938;SDS011;45801;51.810;19.444;2023-04-03T00:28:46;6.70;;;2.00;;
59938;SDS011;45801;51.810;19.444;2023-04-03T00:31:16;6.50;;;2.00;;
59938;SDS011;45801;51.810;19.444;2023-04-03T00:33:42;5.60;;;2.10;;
59938;SDS011;45801;51.810;19.444;2023-04-03T00:36:09;6.90;;;2.20;;
59938;SDS011;45801;51.810;19.444;2023-04-03T00:38:37;5.40;;;2.10;;
59938;SDS011;45801;51.810;19.444;2023-04-03T00:41:03;6.90;;;2.30;;
59938;SDS011;45801;51.810;19.444;2023-04-03T00:43:30;6.90;;;2.20;;
59938;SDS011;45801;51.810;19.444;2023-04-03T00:45:57;5.60;;;2.10;;
59938;SDS011;45801;51.810;19.444;2023-04-03T00:48:29;7.00;;;2.00;;
59938;SDS011;45801;51.810;19.444;2023-04-03T00:50:58;8.40;;;2.10;;
59938;SDS011;45801;51.810;19.444;2023-04-03T00:53:33;6.10;;;1.90;;
59938;SDS011;45801;51.810;19.444;2023-04-03T00:56:05;5.90;;;2.30;;
59938;SDS011;45801;51.810;19.444;2023-04-03T00:58:40;5.50;;;1.90;;
59938;SDS011;45801;51.810;19.444;2023-04-03T01:01:31;5.70;;;1.80;;
59938;SDS011;45801;51.810;19.444;2023-04-03T01:04:03;7.00;;;2.00;;
59938;SDS011;45801;51.810;19.444;2023-04-03T01:06:32;8.00;;;2.30;;
59938;SDS011;45801;51.810;19.444;2023-04-03T01:09:01;6.40;;;2.20;;
59938;SDS011;45801;51.810;19.444;2023-04-03T01:11:29;6.60;;;2.30;;
59938;SDS011;45801;51.810;19.444;2023-04-03T01:13:56;5.40;;;2.20;;
59938;SDS011;45801;51.810;19.444;2023-04-03T01:16:23;7.30;;;2.40;;
59938;SDS011;45801;51.810;19.444;2023-04-03T01:18:49;5.10;;;1.60;;
59938;SDS011;45801;51.810;19.444;2023-04-03T01:21:42;9.10;;;2.20;;
59938;SDS011;45801;51.810;19.444;2023-04-03T01:26:58;4.90;;;1.80;;
59938;SDS011;45801;51.810;19.444;2023-04-03T01:29:26;5.90;;;2.10;;
59938;SDS011;45801;51.810;19.444;2023-04-03T01:31:56;7.10;;;2.00;;
59938;SDS011;45801;51.810;19.444;2023-04-03T01:34:25;8.50;;;3.20;;
59938;SDS011;45801;51.810;19.444;2023-04-03T01:36:53;6.20;;;3.00;;
59938;SDS011;45801;51.810;19.444;2023-04-03T01:39:20;7.60;;;3.60;;
59938;SDS011;45801;51.810;19.444;2023-04-03T01:41:47;9.10;;;4.60;;
59938;SDS011;45801;51.810;19.444;2023-04-03T01:44:15;9.30;;;4.70;;
59938;SDS011;45801;51.810;19.444;2023-04-03T01:46:42;7.60;;;3.20;;
59938;SDS011;45801;51.810;19.444;2023-04-03T01:49:09;9.80;;;4.70;;
59938;SDS011;45801;51.810;19.444;2023-04-03T01:51:36;7.60;;;3.20;;
59938;SDS011;45801;51.810;19.444;2023-04-03T01:54:02;7.80;;;4.20;;
59938;SDS011;45801;51.810;19.444;2023-04-03T01:56:29;8.50;;;5.10;;
59938;SDS011;45801;51.810;19.444;2023-04-03T01:58:56;7.50;;;2.90;;
59938;SDS011;45801;51.810;19.444;2023-04-03T02:01:22;6.60;;;3.00;;
59938;SDS011;45801;51.810;19.444;2023-04-03T02:03:49;6.90;;;3.10;;
59938;SDS011;45801;51.810;19.444;2023-04-03T02:06:15;7.30;;;3.30;;
59938;SDS011;45801;51.810;19.444;2023-04-03T02:08:42;6.40;;;3.10;;
59938;SDS011;45801;51.810;19.444;2023-04-03T02:11:08;6.00;;;2.60;;
59938;SDS011;45801;51.810;19.444;2023-04-03T02:13:35;5.70;;;2.40;;
59938;SDS011;45801;51.810;19.444;2023-04-03T02:16:09;6.20;;;2.10;;
59938;SDS011;45801;51.810;19.444;2023-04-03T02:18:37;10.20;;;3.20;;
59938;SDS011;45801;51.810;19.444;2023-04-03T02:21:04;7.00;;;3.10;;
59938;SDS011;45801;51.810;19.444;2023-04-03T02:23:31;5.90;;;2.30;;
59938;SDS011;45801;51.810;19.444;2023-04-03T02:26:07;7.00;;;2.60;;
59938;SDS011;45801;51.810;19.444;2023-04-03T02:28:37;6.80;;;3.30;;
59938;SDS011;45801;51.810;19.444;2023-04-03T02:31:04;5.80;;;2.00;;
59938;SDS011;45801;51.810;19.444;2023-04-03T02:33:32;6.90;;;2.30;;
59938;SDS011;45801;51.810;19.444;2023-04-03T02:35:59;5.50;;;2.10;;
59938;SDS011;45801;51.810;19.444;2023-04-03T02:38:26;9.70;;;2.60;;
59938;SDS011;45801;51.810;19.444;2023-04-03T02:40:53;6.10;;;2.70;;
59938;SDS011;45801;51.810;19.444;2023-04-03T02:43:19;8.60;;;2.20;;
59938;SDS011;45801;51.810;19.444;2023-04-03T02:45:46;6.30;;;2.20;;
59938;SDS011;45801;51.810;19.444;2023-04-03T02:48:12;7.10;;;2.30;;
59938;SDS011;45801;51.810;19.444;2023-04-03T02:50:41;6.20;;;2.10;;
59938;SDS011;45801;51.810;19.444;2023-04-03T02:53:07;7.00;;;2.50;;
59938;SDS011;45801;51.810;19.444;2023-04-03T02:55:35;5.90;;;2.00;;
59938;SDS011;45801;51.810;19.444;2023-04-03T02:58:01;6.30;;;1.90;;
59938;SDS011;45801;51.810;19.444;2023-04-03T03:00:28;5.20;;;1.90;;
59938;SDS011;45801;51.810;19.444;2023-04-03T03:02:54;7.30;;;2.10;;
59938;SDS011;45801;51.810;19.444;2023-04-03T03:05:21;6.80;;;2.00;;
59938;SDS011;45801;51.810;19.444;2023-04-03T03:07:48;6.00;;;1.70;;
59938;SDS011;45801;51.810;19.444;2023-04-03T03:10:14;9.00;;;1.90;;
59938;SDS011;45801;51.810;19.444;2023-04-03T03:12:41;7.30;;;2.00;;
59938;SDS011;45801;51.810;19.444;2023-04-03T03:15:07;6.50;;;2.20;;
59938;SDS011;45801;51.810;19.444;2023-04-03T03:17:34;6.10;;;2.00;;
59938;SDS011;45801;51.810;19.444;2023-04-03T03:20:05;7.20;;;2.00;;
59938;SDS011;45801;51.810;19.444;2023-04-03T03:22:32;6.10;;;2.10;;
59938;SDS011;45801;51.810;19.444;2023-04-03T03:25:00;6.50;;;2.10;;
59938;SDS011;45801;51.810;19.444;2023-04-03T03:27:27;5.90;;;2.20;;
59938;SDS011;45801;51.810;19.444;2023-04-03T03:29:53;5.60;;;2.10;;
59938;SDS011;45801;51.810;19.444;2023-04-03T03:32:20;5.00;;;2.20;;
59938;SDS011;45801;51.810;19.444;2023-04-03T03:34:46;5.50;;;1.70;;
59938;SDS011;45801;51.810;19.444;2023-04-03T03:37:13;5.70;;;2.30;;
59938;SDS011;45801;51.810;19.444;2023-04-03T03:39:39;6.50;;;2.00;;
59938;SDS011;45801;51.810;19.444;2023-04-03T03:42:06;5.50;;;1.80;;
59938;SDS011;45801;51.810;19.444;2023-04-03T03:44:33;6.00;;;2.00;;
59938;SDS011;45801;51.810;19.444;2023-04-03T03:46:59;4.90;;;1.90;;
59938;SDS011;45801;51.810;19.444;2023-04-03T03:49:26;6.10;;;2.00;;
59938;SDS011;45801;51.810;19.444;2023-04-03T03:51:52;7.80;;;2.10;;
59938;SDS011;45801;51.810;19.444;2023-04-03T03:54:19;5.90;;;2.00;;
59938;SDS011;45801;51.810;19.444;2023-04-03T03:56:45;6.50;;;2.00;;
59938;SDS011;45801;51.810;19.444;2023-04-03T03:59:12;5.90;;;2.00;;
59938;SDS011;45801;51.810;19.444;2023-04-03T04:01:38;6.00;;;2.20;;
59938;SDS011;45801;51.810;19.444;2023-04-03T04:04:05;5.40;;;2.30;;
59938;SDS011;45801;51.810;19.444;2023-04-03T04:06:32;6.10;;;2.20;;
59938;SDS011;45801;51.810;19.444;2023-04-03T04:08:58;8.90;;;3.50;;
59938;SDS011;45801;51.810;19.444;2023-04-03T04:11:26;12.70;;;4.20;;
59938;SDS011;45801;51.810;19.444;2023-04-03T04:13:53;16.40;;;7.40;;
59938;SDS011;45801;51.810;19.444;2023-04-03T04:16:20;16.90;;;9.70;;
59938;SDS011;45801;51.810;19.444;2023-04-03T04:18:46;15.40;;;9.30;;
59938;SDS011;45801;51.810;19.444;2023-04-03T04:21:13;15.90;;;9.10;;
59938;SDS011;45801;51.810;19.444;2023-04-03T04:23:39;20.40;;;13.90;;
59938;SDS011;45801;51.810;19.444;2023-04-03T04:26:07;16.50;;;9.60;;
59938;SDS011;45801;51.810;19.444;2023-04-03T04:28:33;14.00;;;7.90;;
59938;SDS011;45801;51.810;19.444;2023-04-03T04:31:00;11.80;;;6.10;;
59938;SDS011;45801;51.810;19.444;2023-04-03T04:33:26;16.80;;;12.60;;
59938;SDS011;45801;51.810;19.444;2023-04-03T04:35:53;8.60;;;5.20;;
59938;SDS011;45801;51.810;19.444;2023-04-03T04:38:19;9.80;;;6.70;;
59938;SDS011;45801;51.810;19.444;2023-04-03T04:40:48;7.40;;;3.40;;
59938;SDS011;45801;51.810;19.444;2023-04-03T04:43:16;7.60;;;3.20;;
59938;SDS011;45801;51.810;19.444;2023-04-03T04:45:43;7.60;;;3.10;;
59938;SDS011;45801;51.810;19.444;2023-04-03T04:48:09;7.40;;;4.20;;
59938;SDS011;45801;51.810;19.444;2023-04-03T04:50:36;9.10;;;3.50;;
59938;SDS011;45801;51.810;19.444;2023-04-03T04:53:02;9.10;;;3.70;;
59938;SDS011;45801;51.810;19.444;2023-04-03T04:55:30;6.60;;;3.10;;
59938;SDS011;45801;51.810;19.444;2023-04-03T04:57:56;8.10;;;3.30;;
59938;SDS011;45801;51.810;19.444;2023-04-03T05:00:23;7.60;;;3.10;;
59938;SDS011;45801;51.810;19.444;2023-04-03T05:02:49;10.40;;;3.30;;
59938;SDS011;45801;51.810;19.444;2023-04-03T05:05:16;9.40;;;3.50;;
59938;SDS011;45801;51.810;19.444;2023-04-03T05:07:42;6.90;;;2.80;;
59938;SDS011;45801;51.810;19.444;2023-04-03T05:10:09;8.60;;;3.00;;
59938;SDS011;45801;51.810;19.444;2023-04-03T05:12:36;7.80;;;2.90;;
59938;SDS011;45801;51.810;19.444;2023-04-03T05:15:02;7.80;;;2.90;;
59938;SDS011;45801;51.810;19.444;2023-04-03T05:17:29;8.10;;;3.60;;
59938;SDS011;45801;51.810;19.444;2023-04-03T05:19:57;6.80;;;3.00;;
59938;SDS011;45801;51.810;19.444;2023-04-03T05:22:24;8.50;;;3.40;;
59938;SDS011;45801;51.810;19.444;2023-04-03T05:24:50;6.00;;;2.70;;
59938;SDS011;45801;51.810;19.444;2023-04-03T05:27:17;9.40;;;3.70;;
59938;SDS011;45801;51.810;19.444;2023-04-03T05:29:43;6.90;;;2.60;;
59938;SDS011;45801;51.810;19.444;2023-04-03T05:32:10;7.00;;;3.10;;
59938;SDS011;45801;51.810;19.444;2023-04-03T05:34:37;6.60;;;2.80;;
59938;SDS011;45801;51.810;19.444;2023-04-03T05:37:04;6.80;;;2.60;;
59938;SDS011;45801;51.810;19.444;2023-04-03T05:39:31;8.70;;;3.00;;
59938;SDS011;45801;51.810;19.444;2023-04-03T05:41:57;7.20;;;2.80;;
59938;SDS011;45801;51.810;19.444;2023-04-03T05:44:24;8.70;;;3.10;;
59938;SDS011;45801;51.810;19.444;2023-04-03T05:46:51;6.70;;;2.50;;
59938;SDS011;45801;51.810;19.444;2023-04-03T05:49:18;8.40;;;2.70;;
59938;SDS011;45801;51.810;19.444;2023-04-03T05:51:45;9.20;;;2.80;;
59938;SDS011;45801;51.810;19.444;2023-04-03T05:54:19;7.10;;;2.40;;
59938;SDS011;45801;51.810;19.444;2023-04-03T05:56:50;7.60;;;2.80;;
59938;SDS011;45801;51.810;19.444;2023-04-03T05:59:18;7.40;;;2.90;;
59938;SDS011;45801;51.810;19.444;2023-04-03T06:01:45;8.60;;;2.70;;
59938;SDS011;45801;51.810;19.444;2023-04-03T06:04:12;8.20;;;2.80;;
59938;SDS011;45801;51.810;19.444;2023-04-03T06:06:49;6.80;;;2.90;;
59938;SDS011;45801;51.810;19.444;2023-04-03T06:09:19;6.60;;;2.80;;
59938;SDS011;45801;51.810;19.444;2023-04-03T06:11:47;6.30;;;2.80;;
59938;SDS011;45801;51.810;19.444;2023-04-03T06:14:14;7.30;;;2.90;;
59938;SDS011;45801;51.810;19.444;2023-04-03T06:16:40;8.10;;;3.30;;
59938;SDS011;45801;51.810;19.444;2023-04-03T06:19:07;8.00;;;3.60;;
59938;SDS011;45801;51.810;19.444;2023-04-03T06:21:34;8.60;;;3.20;;
59938;SDS011;45801;51.810;19.444;2023-04-03T06:24:04;8.80;;;3.60;;
59938;SDS011;45801;51.810;19.444;2023-04-03T06:26:32;8.10;;;2.90;;
59938;SDS011;45801;51.810;19.444;2023-04-03T06:28:59;7.60;;;3.60;;
59938;SDS011;45801;51.810;19.444;2023-04-03T06:31:26;6.80;;;2.90;;
59938;SDS011;45801;51.810;19.444;2023-04-03T06:33:52;6.80;;;2.90;;
59938;SDS011;45801;51.810;19.444;2023-04-03T06:36:19;8.30;;;3.40;;
59938;SDS011;45801;51.810;19.444;2023-04-03T06:38:48;6.80;;;2.90;;
59938;SDS011;45801;51.810;19.444;2023-04-03T06:41:14;6.80;;;2.80;;
59938;SDS011;45801;51.810;19.444;2023-04-03T06:43:45;7.70;;;2.80;;
59938;SDS011;45801;51.810;19.444;2023-04-03T06:46:15;6.70;;;2.60;;
59938;SDS011;45801;51.810;19.444;2023-04-03T06:48:44;7.20;;;2.80;;
59938;SDS011;45801;51.810;19.444;2023-04-03T06:51:15;7.10;;;2.70;;
59938;SDS011;45801;51.810;19.444;2023-04-03T06:53:45;9.00;;;2.80;;
59938;SDS011;45801;51.810;19.444;2023-04-03T06:56:13;7.30;;;2.50;;
59938;SDS011;45801;51.810;19.444;2023-04-03T06:58:40;5.90;;;2.50;;
59938;SDS011;45801;51.810;19.444;2023-04-03T07:01:08;7.10;;;2.60;;
59938;SDS011;45801;51.810;19.444;2023-04-03T07:03:36;5.70;;;2.70;;
59938;SDS011;45801;51.810;19.444;2023-04-03T07:06:04;9.00;;;4.10;;
59938;SDS011;45801;51.810;19.444;2023-04-03T07:08:34;7.50;;;2.90;;
59938;SDS011;45801;51.810;19.444;2023-04-03T07:11:00;6.90;;;3.20;;
59938;SDS011;45801;51.810;19.444;2023-04-03T07:13:27;7.90;;;2.70;;
59938;SDS011;45801;51.810;19.444;2023-04-03T07:15:54;7.20;;;2.50;;
59938;SDS011;45801;51.810;19.444;2023-04-03T07:18:20;7.40;;;2.50;;
59938;SDS011;45801;51.810;19.444;2023-04-03T07:20:47;6.40;;;2.20;;
59938;SDS011;45801;51.810;19.444;2023-04-03T07:23:14;8.30;;;2.90;;
59938;SDS011;45801;51.810;19.444;2023-04-03T07:25:44;7.90;;;2.50;;
59938;SDS011;45801;51.810;19.444;2023-04-03T07:28:12;7.90;;;2.10;;
59938;SDS011;45801;51.810;19.444;2023-04-03T07:30:43;6.70;;;2.30;;
59938;SDS011;45801;51.810;19.444;2023-04-03T07:33:14;6.40;;;2.30;;
59938;SDS011;45801;51.810;19.444;2023-04-03T07:35:42;10.10;;;2.70;;
59938;SDS011;45801;51.810;19.444;2023-04-03T07:38:09;6.20;;;3.30;;
59938;SDS011;45801;51.810;19.444;2023-04-03T07:40:36;6.20;;;1.90;;
59938;SDS011;45801;51.810;19.444;2023-04-03T07:43:04;6.40;;;2.00;;
59938;SDS011;45801;51.810;19.444;2023-04-03T07:45:32;6.30;;;2.20;;
59938;SDS011;45801;51.810;19.444;2023-04-03T07:48:01;7.60;;;2.60;;
59938;SDS011;45801;51.810;19.444;2023-04-03T07:50:28;5.60;;;1.80;;
59938;SDS011;45801;51.810;19.444;2023-04-03T07:52:56;5.90;;;2.10;;
59938;SDS011;45801;51.810;19.444;2023-04-03T07:55:24;6.20;;;2.30;;
59938;SDS011;45801;51.810;19.444;2023-04-03T07:57:51;7.80;;;2.30;;
59938;SDS011;45801;51.810;19.444;2023-04-03T08:00:17;7.70;;;2.20;;
59938;SDS011;45801;51.810;19.444;2023-04-03T08:02:45;5.80;;;2.30;;
59938;SDS011;45801;51.810;19.444;2023-04-03T08:05:18;6.10;;;2.30;;
59938;SDS011;45801;51.810;19.444;2023-04-03T08:07:45;7.60;;;2.20;;
59938;SDS011;45801;51.810;19.444;2023-04-03T08:10:12;5.60;;;2.00;;
59938;SDS011;45801;51.810;19.444;2023-04-03T08:12:40;7.10;;;2.80;;
59938;SDS011;45801;51.810;19.444;2023-04-03T08:15:07;5.90;;;2.10;;
59938;SDS011;45801;51.810;19.444;2023-04-03T08:17:35;7.10;;;2.10;;
59938;SDS011;45801;51.810;19.444;2023-04-03T08:20:02;6.00;;;1.70;;
59938;SDS011;45801;51.810;19.444;2023-04-03T08:22:33;5.40;;;1.90;;
59938;SDS011;45801;51.810;19.444;2023-04-03T08:25:00;6.70;;;2.10;;
59938;SDS011;45801;51.810;19.444;2023-04-03T08:27:28;3.90;;;1.60;;
59938;SDS011;45801;51.810;19.444;2023-04-03T08:29:55;6.10;;;2.00;;
59938;SDS011;45801;51.810;19.444;2023-04-03T08:32:23;6.10;;;2.00;;
59938;SDS011;45801;51.810;19.444;2023-04-03T08:34:49;5.70;;;2.00;;
59938;SDS011;45801;51.810;19.444;2023-04-03T08:37:16;6.10;;;2.30;;
59938;SDS011;45801;51.810;19.444;2023-04-03T08:39:42;6.50;;;2.10;;
59938;SDS011;45801;51.810;19.444;2023-04-03T08:42:14;7.70;;;2.40;;
59938;SDS011;45801;51.810;19.444;2023-04-03T08:45:15;7.00;;;2.10;;
59938;SDS011;45801;51.810;19.444;2023-04-03T08:48:05;8.90;;;2.20;;
59938;SDS011;45801;51.810;19.444;2023-04-03T08:50:34;8.60;;;2.40;;
59938;SDS011;45801;51.810;19.444;2023-04-03T08:53:10;14.80;;;5.80;;
59938;SDS011;45801;51.810;19.444;2023-04-03T08:55:44;11.30;;;4.10;;
59938;SDS011;45801;51.810;19.444;2023-04-03T08:58:16;9.10;;;3.90;;
59938;SDS011;45801;51.810;19.444;2023-04-03T09:03:22;5.60;;;2.00;;
59938;SDS011;45801;51.810;19.444;2023-04-03T09:08:40;6.30;;;2.00;;
59938;SDS011;45801;51.810;19.444;2023-04-03T09:11:18;7.80;;;2.40;;
59938;SDS011;45801;51.810;19.444;2023-04-03T09:14:33;8.80;;;2.90;;
59938;SDS011;45801;51.810;19.444;2023-04-03T09:17:22;5.90;;;1.90;;
59938;SDS011;45801;51.810;19.444;2023-04-03T09:22:52;5.80;;;2.40;;
59938;SDS011;45801;51.810;19.444;2023-04-03T09:25:22;6.00;;;1.90;;
59938;SDS011;45801;51.810;19.444;2023-04-03T09:27:53;5.10;;;1.60;;
59938;SDS011;45801;51.810;19.444;2023-04-03T09:30:23;6.80;;;2.10;;
59938;SDS011;45801;51.810;19.444;2023-04-03T09:32:52;7.30;;;2.00;;
59938;SDS011;45801;51.810;19.444;2023-04-03T09:35:30;7.30;;;1.50;;
59938;SDS011;45801;51.810;19.444;2023-04-03T09:40:29;6.00;;;1.90;;
59938;SDS011;45801;51.810;19.444;2023-04-03T09:43:22;4.30;;;1.40;;
59938;SDS011;45801;51.810;19.444;2023-04-03T09:46:17;8.80;;;2.50;;
59938;SDS011;45801;51.810;19.444;2023-04-03T09:48:52;6.40;;;2.00;;
59938;SDS011;45801;51.810;19.444;2023-04-03T09:51:27;6.50;;;1.60;;
59938;SDS011;45801;51.810;19.444;2023-04-03T09:53:55;7.50;;;2.50;;
59938;SDS011;45801;51.810;19.444;2023-04-03T09:56:23;4.70;;;1.60;;
59938;SDS011;45801;51.810;19.444;2023-04-03T10:04:18;4.10;;;1.50;;
59938;SDS011;45801;51.810;19.444;2023-04-03T10:06:46;5.00;;;1.90;;
59938;SDS011;45801;51.810;19.444;2023-04-03T10:14:33;5.50;;;1.80;;
59938;SDS011;45801;51.810;19.444;2023-04-03T10:17:03;5.20;;;1.70;;
59938;SDS011;45801;51.810;19.444;2023-04-03T10:29:09;4.60;;;1.50;;
59938;SDS011;45801;51.810;19.444;2023-04-03T10:31:59;5.50;;;1.60;;
59938;SDS011;45801;51.810;19.444;2023-04-03T10:34:37;4.60;;;1.40;;
59938;SDS011;45801;51.810;19.444;2023-04-03T10:37:12;4.40;;;1.50;;
59938;SDS011;45801;51.810;19.444;2023-04-03T10:42:50;6.30;;;2.00;;
59938;SDS011;45801;51.810;19.444;2023-04-03T10:45:24;5.00;;;1.90;;
59938;SDS011;45801;51.810;19.444;2023-04-03T10:48:00;5.10;;;1.70;;
59938;SDS011;45801;51.810;19.444;2023-04-03T10:53:31;4.80;;;1.90;;
59938;SDS011;45801;51.810;19.444;2023-04-03T10:58:57;6.00;;;1.80;;
59938;SDS011;45801;51.810;19.444;2023-04-03T11:01:32;5.90;;;2.20;;
59938;SDS011;45801;51.810;19.444;2023-04-03T11:04:02;8.10;;;2.80;;
59938;SDS011;45801;51.810;19.444;2023-04-03T11:06:32;8.60;;;3.80;;
59938;SDS011;45801;51.810;19.444;2023-04-03T11:09:21;8.10;;;2.80;;
59938;SDS011;45801;51.810;19.444;2023-04-03T11:11:55;7.70;;;3.50;;
59938;SDS011;45801;51.810;19.444;2023-04-03T11:14:31;6.70;;;2.60;;
59938;SDS011;45801;51.810;19.444;2023-04-03T11:23:05;5.80;;;2.40;;
59938;SDS011;45801;51.810;19.444;2023-04-03T11:25:33;7.70;;;3.20;;
59938;SDS011;45801;51.810;19.444;2023-04-03T11:28:04;8.30;;;2.10;;
59938;SDS011;45801;51.810;19.444;2023-04-03T11:30:36;5.90;;;2.30;;
59938;SDS011;45801;51.810;19.444;2023-04-03T11:38:33;6.40;;;2.20;;
59938;SDS011;45801;51.810;19.444;2023-04-03T11:41:05;5.10;;;2.00;;
59938;SDS011;45801;51.810;19.444;2023-04-03T11:43:33;6.10;;;1.70;;
59938;SDS011;45801;51.810;19.444;2023-04-03T11:46:07;5.60;;;1.90;;
59938;SDS011;45801;51.810;19.444;2023-04-03T11:51:01;5.60;;;1.30;;
59938;SDS011;45801;51.810;19.444;2023-04-03T11:53:48;4.70;;;1.70;;
59938;SDS011;45801;51.810;19.444;2023-04-03T12:01:52;5.70;;;1.60;;
59938;SDS011;45801;51.810;19.444;2023-04-03T12:04:21;5.80;;;1.70;;
59938;SDS011;45801;51.810;19.444;2023-04-03T12:06:57;8.40;;;3.20;;
59938;SDS011;45801;51.810;19.444;2023-04-03T12:09:28;6.30;;;2.00;;
59938;SDS011;45801;51.810;19.444;2023-04-03T12:12:01;4.00;;;1.70;;
59938;SDS011;45801;51.810;19.444;2023-04-03T12:14:47;4.90;;;1.70;;
59938;SDS011;45801;51.810;19.444;2023-04-03T12:17:25;6.20;;;2.00;;
59938;SDS011;45801;51.810;19.444;2023-04-03T12:19:53;5.40;;;1.60;;
59938;SDS011;45801;51.810;19.444;2023-04-03T12:22:20;4.40;;;1.30;;
59938;SDS011;45801;51.810;19.444;2023-04-03T12:24:49;4.10;;;1.60;;
59938;SDS011;45801;51.810;19.444;2023-04-03T12:27:21;6.50;;;1.90;;
59938;SDS011;45801;51.810;19.444;2023-04-03T12:32:58;6.70;;;1.80;;
59938;SDS011;45801;51.810;19.444;2023-04-03T12:36:01;4.10;;;1.50;;
59938;SDS011;45801;51.810;19.444;2023-04-03T12:41:44;5.60;;;1.40;;
59938;SDS011;45801;51.810;19.444;2023-04-03T12:47:08;4.60;;;1.40;;
59938;SDS011;45801;51.810;19.444;2023-04-03T12:49:49;4.50;;;1.50;;
59938;SDS011;45801;51.810;19.444;2023-04-03T12:52:19;5.90;;;1.80;;
59938;SDS011;45801;51.810;19.444;2023-04-03T12:55:00;5.20;;;1.90;;
59938;SDS011;45801;51.810;19.444;2023-04-03T12:57:30;3.20;;;1.10;;
59938;SDS011;45801;51.810;19.444;2023-04-03T12:59:58;3.60;;;1.20;;
59938;SDS011;45801;51.810;19.444;2023-04-03T13:02:29;3.60;;;1.50;;
59938;SDS011;45801;51.810;19.444;2023-04-03T13:05:04;4.40;;;1.80;;
59938;SDS011;45801;51.810;19.444;2023-04-03T13:07:34;3.80;;;1.10;;
59938;SDS011;45801;51.810;19.444;2023-04-03T13:12:35;3.10;;;1.50;;
59938;SDS011;45801;51.810;19.444;2023-04-03T13:15:12;4.50;;;1.70;;
59938;SDS011;45801;51.810;19.444;2023-04-03T13:17:59;4.20;;;1.60;;
59938;SDS011;45801;51.810;19.444;2023-04-03T13:20:30;5.30;;;2.30;;
59938;SDS011;45801;51.810;19.444;2023-04-03T13:23:01;6.00;;;1.90;;
59938;SDS011;45801;51.810;19.444;2023-04-03T13:25:35;6.70;;;2.00;;
59938;SDS011;45801;51.810;19.444;2023-04-03T13:30:33;5.00;;;1.80;;
59938;SDS011;45801;51.810;19.444;2023-04-03T13:33:03;4.50;;;1.70;;
59938;SDS011;45801;51.810;19.444;2023-04-03T13:35:37;5.00;;;1.70;;
59938;SDS011;45801;51.810;19.444;2023-04-03T13:38:27;5.60;;;1.60;;
59938;SDS011;45801;51.810;19.444;2023-04-03T13:40:56;5.50;;;1.90;;
59938;SDS011;45801;51.810;19.444;2023-04-03T13:43:27;29.30;;;11.10;;
59938;SDS011;45801;51.810;19.444;2023-04-03T13:46:20;10.10;;;3.60;;
59938;SDS011;45801;51.810;19.444;2023-04-03T13:48:51;23.20;;;11.10;;
59938;SDS011;45801;51.810;19.444;2023-04-03T13:51:22;8.80;;;3.20;;
59938;SDS011;45801;51.810;19.444;2023-04-03T13:53:52;7.20;;;2.50;;
59938;SDS011;45801;51.810;19.444;2023-04-03T13:56:23;5.80;;;2.30;;
59938;SDS011;45801;51.810;19.444;2023-04-03T13:58:56;8.40;;;3.20;;
59938;SDS011;45801;51.810;19.444;2023-04-03T14:01:41;9.10;;;2.40;;
59938;SDS011;45801;51.810;19.444;2023-04-03T14:06:41;6.20;;;2.50;;
59938;SDS011;45801;51.810;19.444;2023-04-03T14:09:08;7.60;;;2.40;;
59938;SDS011;45801;51.810;19.444;2023-04-03T14:11:35;6.20;;;2.20;;
59938;SDS011;45801;51.810;19.444;2023-04-03T14:14:05;8.60;;;2.80;;
59938;SDS011;45801;51.810;19.444;2023-04-03T14:16:40;6.20;;;2.20;;
59938;SDS011;45801;51.810;19.444;2023-04-03T14:19:14;5.80;;;2.60;;
59938;SDS011;45801;51.810;19.444;2023-04-03T14:21:45;7.20;;;2.40;;
59938;SDS011;45801;51.810;19.444;2023-04-03T14:24:11;7.40;;;3.50;;
59938;SDS011;45801;51.810;19.444;2023-04-03T14:26:38;6.50;;;2.40;;
59938;SDS011;45801;51.810;19.444;2023-04-03T14:29:04;5.20;;;2.00;;
59938;SDS011;45801;51.810;19.444;2023-04-03T14:31:32;6.00;;;2.00;;
59938;SDS011;45801;51.810;19.444;2023-04-03T14:33:58;5.60;;;2.30;;
59938;SDS011;45801;51.810;19.444;2023-04-03T14:36:26;5.20;;;2.20;;
59938;SDS011;45801;51.810;19.444;2023-04-03T14:38:55;5.60;;;2.40;;
59938;SDS011;45801;51.810;19.444;2023-04-03T14:41:23;6.70;;;2.30;;
59938;SDS011;45801;51.810;19.444;2023-04-03T14:43:52;6.60;;;2.20;;
59938;SDS011;45801;51.810;19.444;2023-04-03T14:46:22;6.80;;;2.20;;
59938;SDS011;45801;51.810;19.444;2023-04-03T14:48:52;6.40;;;1.90;;
59938;SDS011;45801;51.810;19.444;2023-04-03T14:51:19;5.30;;;1.90;;
59938;SDS011;45801;51.810;19.444;2023-04-03T14:53:46;5.80;;;2.20;;
59938;SDS011;45801;51.810;19.444;2023-04-03T14:56:14;5.40;;;2.00;;
59938;SDS011;45801;51.810;19.444;2023-04-03T14:58:44;5.00;;;1.90;;
59938;SDS011;45801;51.810;19.444;2023-04-03T15:01:11;4.40;;;1.70;;
59938;SDS011;45801;51.810;19.444;2023-04-03T15:03:38;4.10;;;1.70;;
59938;SDS011;45801;51.810;19.444;2023-04-03T15:06:08;4.60;;;1.70;;
59938;SDS011;45801;51.810;19.444;2023-04-03T15:08:36;4.80;;;1.70;;
59938;SDS011;45801;51.810;19.444;2023-04-03T15:11:03;4.40;;;1.80;;
59938;SDS011;45801;51.810;19.444;2023-04-03T15:13:29;7.80;;;3.10;;
59938;SDS011;45801;51.810;19.444;2023-04-03T15:15:56;4.40;;;1.70;;
59938;SDS011;45801;51.810;19.444;2023-04-03T15:18:24;5.60;;;2.00;;
59938;SDS011;45801;51.810;19.444;2023-04-03T15:20:52;5.70;;;2.30;;
59938;SDS011;45801;51.810;19.444;2023-04-03T15:23:19;5.80;;;2.40;;
59938;SDS011;45801;51.810;19.444;2023-04-03T15:25:47;7.00;;;2.30;;
59938;SDS011;45801;51.810;19.444;2023-04-03T15:30:54;5.40;;;1.90;;
59938;SDS011;45801;51.810;19.444;2023-04-03T15:33:21;4.80;;;1.90;;
59938;SDS011;45801;51.810;19.444;2023-04-03T15:35:48;5.80;;;2.40;;
59938;SDS011;45801;51.810;19.444;2023-04-03T15:38:14;5.60;;;1.80;;
59938;SDS011;45801;51.810;19.444;2023-04-03T15:40:41;6.10;;;2.30;;
59938;SDS011;45801;51.810;19.444;2023-04-03T15:43:08;6.00;;;2.10;;
59938;SDS011;45801;51.810;19.444;2023-04-03T15:45:36;5.50;;;1.70;;
59938;SDS011;45801;51.810;19.444;2023-04-03T15:48:03;6.70;;;2.00;;
59938;SDS011;45801;51.810;19.444;2023-04-03T15:50:31;5.00;;;2.20;;
59938;SDS011;45801;51.810;19.444;2023-04-03T15:52:59;5.30;;;1.90;;
59938;SDS011;45801;51.810;19.444;2023-04-03T15:55:28;7.40;;;2.50;;
59938;SDS011;45801;51.810;19.444;2023-04-03T15:57:57;6.10;;;1.90;;
59938;SDS011;45801;51.810;19.444;2023-04-03T16:00:23;10.00;;;4.60;;
59938;SDS011;45801;51.810;19.444;2023-04-03T16:02:52;11.50;;;5.40;;
59938;SDS011;45801;51.810;19.444;2023-04-03T16:05:21;8.10;;;3.80;;
59938;SDS011;45801;51.810;19.444;2023-04-03T16:07:48;8.90;;;3.70;;
59938;SDS011;45801;51.810;19.444;2023-04-03T16:10:15;7.60;;;3.10;;